Time;durP1;ratioP1;P1;durP2;ratioP2;P2;SDS_P1;SDS_P2;PMS_P1;PMS_P2;Temp;Humidity;BMP_temperature;BMP_pressure;BME280_temperature;BME280_humidity;BME280_pressure;Samples;Min_cycle;Max_cycle;Signal;HPM_P1;HPM_P2
2023/07/04 00:01:57;;;;;;;14.40;10.40;;;;;;;19.52;65.28;97591.45;106845;1277;22595;-80
2023/07/04 00:04:24;;;;;;;15.60;10.60;;;;;;;19.50;65.27;97592.41;106963;1277;23895;-79
2023/07/04 00:06:53;;;;;;;14.40;9.90;;;;;;;19.42;65.45;97595.48;106661;1278;22568;-78
2023/07/04 00:09:20;;;;;;;12.30;10.30;;;;;;;19.40;65.70;97595.91;106701;1277;22593;-78
2023/07/04 00:11:47;;;;;;;14.40;10.30;;;;;;;19.41;65.66;97600.55;106973;1277;24304;-79
2023/07/04 00:14:14;;;;;;;13.30;10.00;;;;;;;19.42;65.77;97598.84;106521;1277;22538;-78
2023/07/04 00:16:40;;;;;;;13.40;10.10;;;;;;;19.43;66.01;97600.33;106613;1277;22537;-79
2023/07/04 00:19:07;;;;;;;11.90;9.80;;;;;;;19.45;66.16;97598.42;106766;1278;23029;-79
2023/07/04 00:21:34;;;;;;;13.20;10.10;;;;;;;19.50;66.12;97596.33;106543;1278;22531;-78
2023/07/04 00:24:01;;;;;;;15.00;10.50;;;;;;;19.54;66.04;97593.73;106581;1277;25401;-79
2023/07/04 00:26:29;;;;;;;13.00;9.90;;;;;;;19.53;66.10;97593.64;106697;1277;22530;-79
2023/07/04 00:28:57;;;;;;;10.90;9.40;;;;;;;19.50;66.13;97599.85;106581;1275;22586;-80
2023/07/04 00:31:24;;;;;;;11.90;9.10;;;;;;;19.46;66.22;97598.44;106941;1277;22544;-80
2023/07/04 00:33:53;;;;;;;12.60;9.90;;;;;;;19.45;66.47;97599.59;106958;1277;25445;-79
2023/07/04 00:36:20;;;;;;;13.40;9.30;;;;;;;19.41;66.25;97596.64;106879;1277;23440;-81
2023/07/04 00:38:51;;;;;;;13.40;9.80;;;;;;;19.37;66.33;97592.81;106810;1277;22553;-80
2023/07/04 00:41:21;;;;;;;15.70;10.60;;;;;;;19.33;66.33;97590.80;106710;1277;24083;-78
2023/07/04 00:43:57;;;;;;;11.80;9.80;;;;;;;19.34;66.68;97589.24;106648;1277;22544;-79
2023/07/04 00:46:39;;;;;;;12.40;9.60;;;;;;;19.37;66.69;97587.75;106976;1278;25234;-79
2023/07/04 00:49:20;;;;;;;16.10;11.40;;;;;;;19.37;66.63;97586.11;106958;1277;22537;-78
2023/07/04 00:51:55;;;;;;;13.30;10.30;;;;;;;19.41;66.71;97582.28;106565;1277;22558;-77
2023/07/04 00:54:24;;;;;;;12.70;10.30;;;;;;;19.39;66.72;97582.70;106681;1278;25397;-78
2023/07/04 00:57:02;;;;;;;14.30;10.60;;;;;;;19.37;66.78;97585.31;106686;1277;22537;-78
2023/07/04 00:59:32;;;;;;;12.80;10.10;;;;;;;19.35;66.89;97583.25;107096;1256;22537;-78
2023/07/04 01:01:59;;;;;;;12.60;10.70;;;;;;;19.33;67.31;97586.73;106464;1277;25335;-77
2023/07/04 01:04:27;;;;;;;12.80;9.70;;;;;;;19.30;67.15;97588.09;106703;1277;22528;-78
2023/07/04 01:07:06;;;;;;;12.40;9.80;;;;;;;19.31;67.19;97589.98;106716;1278;26586;-78
2023/07/04 01:09:35;;;;;;;13.20;10.50;;;;;;;19.31;67.56;97589.20;106682;1277;24302;-78
2023/07/04 01:12:02;;;;;;;18.70;11.60;;;;;;;19.31;67.73;97588.96;107008;1277;25507;-79
2023/07/04 01:14:29;;;;;;;12.90;10.50;;;;;;;19.24;67.60;97590.41;106929;1277;23934;-78
2023/07/04 01:16:56;;;;;;;13.80;10.30;;;;;;;19.14;67.88;97589.77;106752;1277;24258;-79
2023/07/04 01:19:35;;;;;;;12.80;11.00;;;;;;;19.16;68.06;97591.81;106829;1278;22652;-79
2023/07/04 01:22:20;;;;;;;13.40;10.90;;;;;;;19.18;67.80;97595.99;106939;1277;23823;-79
2023/07/04 01:25:22;;;;;;;16.00;11.30;;;;;;;19.19;67.93;97587.27;106755;1277;22600;-79
2023/07/04 01:27:52;;;;;;;13.50;11.10;;;;;;;19.20;67.98;97586.44;106635;1277;24066;-78
2023/07/04 01:30:19;;;;;;;12.10;10.20;;;;;;;19.20;67.88;97588.47;106807;1277;24255;-78
2023/07/04 01:32:52;;;;;;;12.40;11.00;;;;;;;19.18;67.99;97589.91;106669;1277;22524;-77
2023/07/04 01:35:19;;;;;;;14.40;11.80;;;;;;;19.15;68.05;97598.90;106580;1277;22552;-78
2023/07/04 01:37:46;;;;;;;12.60;11.10;;;;;;;19.10;68.42;97603.27;106524;1277;22532;-78
2023/07/04 01:40:12;;;;;;;13.70;12.00;;;;;;;19.07;68.35;97607.80;106498;1278;23916;-78
2023/07/04 01:42:39;;;;;;;16.90;12.00;;;;;;;19.03;68.83;97611.56;106535;1277;25281;-79
2023/07/04 01:45:08;;;;;;;13.80;12.20;;;;;;;18.99;68.69;97618.89;106892;1277;22659;-80
2023/07/04 01:47:36;;;;;;;15.20;11.60;;;;;;;18.89;68.92;97618.92;106710;1277;24387;-79
2023/07/04 01:50:06;;;;;;;13.70;11.90;;;;;;;18.84;69.46;97620.54;107127;1277;26686;-79
2023/07/04 01:52:32;;;;;;;15.70;11.80;;;;;;;18.79;69.20;97618.04;106942;1278;22553;-79
2023/07/04 01:54:59;;;;;;;13.80;10.90;;;;;;;18.78;69.39;97610.45;106876;1277;23413;-82
2023/07/04 01:57:26;;;;;;;14.00;11.90;;;;;;;18.75;69.45;97603.83;106745;1278;25252;-78
2023/07/04 01:59:53;;;;;;;14.90;12.70;;;;;;;18.72;69.63;97602.04;106751;1277;22586;-78
2023/07/04 02:02:21;;;;;;;14.30;11.10;;;;;;;18.69;69.69;97603.91;106753;1277;24267;-78
2023/07/04 02:04:48;;;;;;;14.50;11.00;;;;;;;18.71;70.03;97603.81;106532;1278;22788;-78
2023/07/04 02:07:14;;;;;;;14.00;12.10;;;;;;;18.75;69.97;97609.14;106942;1277;25379;-78
2023/07/04 02:09:42;;;;;;;14.60;11.80;;;;;;;18.76;70.32;97606.60;106971;1277;24220;-79
2023/07/04 02:12:09;;;;;;;14.90;12.50;;;;;;;18.75;70.36;97607.41;106824;1277;22543;-79
2023/07/04 02:14:36;;;;;;;17.00;12.00;;;;;;;18.62;70.50;97605.80;106814;1277;24275;-78
2023/07/04 02:17:03;;;;;;;14.40;11.80;;;;;;;18.53;70.53;97606.95;106869;1277;25459;-78
2023/07/04 02:19:30;;;;;;;13.60;11.90;;;;;;;18.39;70.70;97613.27;106641;1277;22543;-78
2023/07/04 02:21:57;;;;;;;16.70;12.20;;;;;;;18.30;70.92;97606.67;106499;1277;25236;-78
2023/07/04 02:24:23;;;;;;;14.00;12.50;;;;;;;18.30;71.11;97609.02;106843;1277;24085;-78
2023/07/04 02:26:50;;;;;;;14.20;12.40;;;;;;;18.34;71.77;97606.31;106710;1277;22644;-76
2023/07/04 02:29:17;;;;;;;13.80;12.40;;;;;;;18.35;72.09;97603.52;106740;1277;22547;-78
2023/07/04 02:31:43;;;;;;;14.60;12.80;;;;;;;18.33;72.01;97603.73;106911;1277;22553;-78
2023/07/04 02:34:10;;;;;;;15.40;13.20;;;;;;;18.28;71.99;97599.25;106811;1277;22596;-78
2023/07/04 02:36:36;;;;;;;15.50;13.70;;;;;;;18.24;72.06;97601.02;106814;1278;22543;-78
2023/07/04 02:39:03;;;;;;;19.00;13.50;;;;;;;18.17;71.98;97602.20;106556;1277;24245;-77
2023/07/04 02:41:30;;;;;;;15.60;12.40;;;;;;;18.15;72.56;97599.05;106504;1277;24485;-77
2023/07/04 02:43:59;;;;;;;18.50;14.10;;;;;;;18.18;72.59;97600.17;106576;1277;25236;-78
2023/07/04 02:46:26;;;;;;;17.60;13.50;;;;;;;18.18;72.74;97603.86;106897;1254;23538;-77
2023/07/04 02:48:56;;;;;;;17.90;14.00;;;;;;;18.19;72.60;97601.70;106534;1277;24230;-77
2023/07/04 02:51:23;;;;;;;16.30;14.60;;;;;;;18.19;72.91;97596.94;106576;1277;24265;-78
2023/07/04 02:53:49;;;;;;;17.40;15.10;;;;;;;18.11;72.92;97598.02;106718;1278;24406;-77
2023/07/04 02:56:17;;;;;;;16.10;14.40;;;;;;;18.05;73.06;97598.42;106591;1277;25409;-78
2023/07/04 02:58:43;;;;;;;17.90;13.80;;;;;;;17.98;73.41;97595.23;106693;1277;22653;-78
2023/07/04 03:01:10;;;;;;;18.20;14.10;;;;;;;18.00;73.72;97589.52;106865;1277;23026;-78
2023/07/04 03:03:37;;;;;;;18.00;15.40;;;;;;;18.04;73.91;97593.03;106485;1277;22996;-78
2023/07/04 03:06:05;;;;;;;19.80;14.80;;;;;;;18.02;73.97;97595.71;106917;1277;25414;-78
2023/07/04 03:08:31;;;;;;;16.00;14.30;;;;;;;17.96;73.98;97594.79;106942;1277;22690;-78
2023/07/04 03:10:58;;;;;;;17.40;14.20;;;;;;;17.98;74.18;97591.19;106444;1277;25406;-78
2023/07/04 03:13:26;;;;;;;16.50;13.80;;;;;;;18.02;74.26;97597.73;106601;1277;22632;-79
2023/07/04 03:15:53;;;;;;;17.90;15.20;;;;;;;18.07;74.09;97597.38;106473;1277;25236;-78
2023/07/04 03:18:22;;;;;;;16.90;14.50;;;;;;;18.09;74.24;97609.27;106853;1277;22654;-77
2023/07/04 03:20:49;;;;;;;19.10;15.10;;;;;;;18.12;74.41;97607.70;106833;1277;25402;-79
2023/07/04 03:23:17;;;;;;;20.00;15.50;;;;;;;18.15;74.42;97605.14;106702;1277;25236;-78
2023/07/04 03:25:44;;;;;;;19.60;15.30;;;;;;;18.16;74.18;97614.64;106571;1277;25326;-77
2023/07/04 03:28:11;;;;;;;16.40;14.50;;;;;;;18.10;74.16;97617.77;106817;1277;22566;-77
2023/07/04 03:30:38;;;;;;;19.10;15.20;;;;;;;18.06;74.23;97618.63;106477;1262;24219;-78
2023/07/04 03:33:10;;;;;;;18.10;14.90;;;;;;;18.08;74.84;97621.63;106926;1277;22537;-77
2023/07/04 03:35:40;;;;;;;15.90;13.90;;;;;;;18.10;74.87;97623.78;106544;1277;22557;-78
2023/07/04 03:38:25;;;;;;;18.40;15.20;;;;;;;18.15;75.32;97632.63;106554;1277;25392;-78
2023/07/04 03:40:52;;;;;;;18.80;15.80;;;;;;;18.15;74.89;97635.73;106835;1277;22542;-79
2023/07/04 03:43:19;;;;;;;17.00;15.00;;;;;;;18.13;75.13;97630.86;106554;1277;25414;-77
2023/07/04 03:45:49;;;;;;;17.20;15.10;;;;;;;18.13;75.83;97637.71;106760;1277;26522;-77
2023/07/04 03:48:15;;;;;;;20.60;14.40;;;;;;;18.17;75.57;97637.80;106692;1277;22534;-77
2023/07/04 03:50:44;;;;;;;19.40;14.10;;;;;;;18.23;75.67;97642.63;106719;1277;22545;-78
2023/07/04 03:53:11;;;;;;;17.80;15.20;;;;;;;18.28;75.45;97645.60;106706;1277;22633;-78
2023/07/04 03:55:37;;;;;;;19.70;15.70;;;;;;;18.31;75.12;97651.75;106753;1277;25632;-77
2023/07/04 03:58:05;;;;;;;19.00;15.30;;;;;;;18.30;74.83;97651.64;106599;1267;22563;-77
2023/07/04 04:00:32;;;;;;;22.00;17.80;;;;;;;18.24;74.78;97656.83;106558;1277;22605;-78
2023/07/04 04:02:59;;;;;;;18.20;16.30;;;;;;;18.16;74.81;97662.79;106626;1278;22645;-79
2023/07/04 04:05:28;;;;;;;19.10;16.70;;;;;;;18.12;75.12;97666.06;106886;1262;25236;-79
2023/07/04 04:07:55;;;;;;;21.70;16.10;;;;;;;18.15;75.38;97667.44;106848;1277;22644;-78
2023/07/04 04:10:22;;;;;;;18.30;15.40;;;;;;;18.25;75.61;97670.55;106921;1277;23055;-78
2023/07/04 04:12:49;;;;;;;18.30;16.40;;;;;;;18.36;76.08;97671.59;107097;1277;25337;-76
2023/07/04 04:15:16;;;;;;;18.60;16.40;;;;;;;18.45;76.24;97674.81;106942;1269;22530;-78
2023/07/04 04:17:43;;;;;;;23.70;18.10;;;;;;;18.53;76.22;97672.89;106961;1273;22805;-78
2023/07/04 04:20:10;;;;;;;23.10;19.80;;;;;;;18.58;75.66;97674.34;106802;1269;22545;-78
2023/07/04 04:22:45;;;;;;;24.20;20.30;;;;;;;18.50;75.52;97679.30;107078;1269;22524;-76
2023/07/04 04:25:13;;;;;;;25.60;20.40;;;;;;;18.37;75.48;97681.42;106848;1269;22730;-78
2023/07/04 04:27:40;;;;;;;26.00;18.20;;;;;;;18.33;76.30;97679.31;107186;1269;22529;-77
2023/07/04 04:30:09;;;;;;;24.20;20.80;;;;;;;18.47;76.85;97678.54;106682;1276;22540;-76
2023/07/04 04:32:37;;;;;;;23.10;17.70;;;;;;;18.59;76.10;97684.41;106991;1276;22704;-77
2023/07/04 04:35:06;;;;;;;31.60;25.40;;;;;;;18.66;76.11;97688.77;106760;1276;22618;-78
2023/07/04 04:37:34;;;;;;;25.00;21.80;;;;;;;18.58;75.99;97687.35;106905;1276;22526;-76
2023/07/04 04:40:00;;;;;;;27.50;21.80;;;;;;;18.54;76.73;97692.02;106735;1276;22622;-78
2023/07/04 04:42:27;;;;;;;26.50;21.20;;;;;;;18.48;76.34;97689.00;106760;1276;22595;-80
2023/07/04 04:44:54;;;;;;;24.90;18.80;;;;;;;18.46;76.95;97690.50;106820;1276;188485;-77
2023/07/04 04:47:24;;;;;;;25.80;18.10;;;;;;;18.64;77.32;97686.77;106939;1276;22735;-78
2023/07/04 04:49:52;;;;;;;21.60;18.30;;;;;;;18.83;76.81;97686.89;106969;1276;22727;-77
2023/07/04 04:52:20;;;;;;;22.70;19.40;;;;;;;18.97;77.04;97689.92;106827;1265;24189;-75
2023/07/04 04:54:47;;;;;;;21.60;18.30;;;;;;;19.12;76.63;97690.52;106570;1277;22534;-75
2023/07/04 04:57:15;;;;;;;23.20;19.90;;;;;;;19.09;76.56;97690.33;106581;1275;22546;-75
2023/07/04 04:59:43;;;;;;;24.80;20.80;;;;;;;19.01;76.43;97688.61;106694;1277;25237;-76
2023/07/04 05:02:09;;;;;;;29.40;20.80;;;;;;;19.00;76.42;97690.45;107104;1277;22574;-76
2023/07/04 05:04:36;;;;;;;22.80;20.40;;;;;;;19.11;76.25;97688.00;106647;1277;25415;-76
2023/07/04 05:07:03;;;;;;;22.40;19.30;;;;;;;19.20;76.12;97686.40;106567;1277;23965;-75
2023/07/04 05:09:31;;;;;;;28.70;20.90;;;;;;;19.26;75.54;97691.34;106608;1277;25297;-75
2023/07/04 05:11:59;;;;;;;25.40;18.30;;;;;;;19.30;75.72;97689.95;106732;1277;22546;-75
2023/07/04 05:14:25;;;;;;;23.00;19.00;;;;;;;19.40;75.41;97698.02;106599;1277;24237;-75
2023/07/04 05:16:52;;;;;;;22.10;18.90;;;;;;;19.42;75.32;97703.20;106593;1277;22552;-78
2023/07/04 05:19:18;;;;;;;21.30;17.50;;;;;;;19.44;75.19;97700.58;106894;1277;25395;-77
2023/07/04 05:21:47;;;;;;;24.50;18.00;;;;;;;19.49;75.21;97705.14;106659;1278;22533;-76
2023/07/04 05:24:15;;;;;;;22.60;18.50;;;;;;;19.55;74.99;97703.06;106908;1278;23257;-76
2023/07/04 05:26:41;;;;;;;25.20;19.20;;;;;;;19.56;74.54;97704.80;106578;1277;23955;-76
2023/07/04 05:29:08;;;;;;;26.30;19.00;;;;;;;19.55;74.35;97704.62;106701;1277;25479;-77
2023/07/04 05:31:35;;;;;;;25.10;19.60;;;;;;;19.50;73.99;97710.24;107088;1277;22531;-75
2023/07/04 05:34:01;;;;;;;24.60;20.30;;;;;;;19.45;73.51;97710.39;107199;1277;23015;-74
2023/07/04 05:36:33;;;;;;;25.30;20.00;;;;;;;19.47;73.56;97711.91;107108;1272;22555;-76
2023/07/04 05:39:02;;;;;;;23.70;20.20;;;;;;;19.49;73.21;97709.58;107741;1278;24242;-75
2023/07/04 05:41:31;;;;;;;31.60;19.70;;;;;;;19.54;73.29;97710.31;107788;1277;22563;-75
2023/07/04 05:44:00;;;;;;;25.30;19.30;;;;;;;19.58;73.13;97708.95;107117;1278;24155;-76
2023/07/04 05:46:27;;;;;;;25.70;19.10;;;;;;;19.61;72.32;97713.23;107228;1277;23170;-76
2023/07/04 05:48:54;;;;;;;26.80;19.90;;;;;;;19.63;72.02;97713.50;106848;1277;22586;-75
2023/07/04 05:51:22;;;;;;;23.40;19.20;;;;;;;19.63;71.30;97717.48;106916;1276;22650;-76
2023/07/04 05:53:50;;;;;;;31.30;19.70;;;;;;;19.64;71.30;97718.95;106816;1276;22608;-74
2023/07/04 05:56:17;;;;;;;25.70;19.00;;;;;;;19.69;70.89;97718.97;106900;1270;24724;-75
2023/07/04 05:58:49;;;;;;;26.30;18.40;;;;;;;19.72;70.53;97720.42;106718;1269;24137;-75
2023/07/04 06:01:21;;;;;;;27.00;20.20;;;;;;;19.79;71.00;97720.08;106719;1270;22590;-74
2023/07/04 06:03:48;;;;;;;23.30;17.60;;;;;;;19.91;70.32;97724.20;106833;1274;22563;-74
2023/07/04 06:06:19;;;;;;;25.70;17.80;;;;;;;19.95;69.55;97719.96;107399;1276;22666;-75
2023/07/04 06:08:48;;;;;;;23.20;17.60;;;;;;;20.02;69.63;97719.77;107404;1276;22733;-75
2023/07/04 06:11:16;;;;;;;22.00;18.00;;;;;;;20.13;68.77;97729.18;107153;1269;25287;-74
2023/07/04 06:13:43;;;;;;;25.80;16.90;;;;;;;20.22;68.99;97731.28;107093;1275;25431;-73
2023/07/04 06:16:10;;;;;;;21.80;16.20;;;;;;;20.33;68.41;97733.64;106907;1276;24186;-74
2023/07/04 06:18:38;;;;;;;22.60;18.10;;;;;;;20.43;68.23;97729.18;106779;1276;22644;-75
2023/07/04 06:21:15;;;;;;;25.90;18.00;;;;;;;20.53;67.94;97725.98;106842;1276;25451;-76
2023/07/04 06:23:44;;;;;;;21.90;15.70;;;;;;;20.65;68.06;97724.70;106817;1276;25437;-76
2023/07/04 06:26:13;;;;;;;21.40;15.80;;;;;;;20.73;67.13;97724.81;106851;1269;22576;-75
2023/07/04 06:28:41;;;;;;;21.20;16.20;;;;;;;20.78;66.71;97732.05;107177;1276;24218;-77
2023/07/04 06:31:27;;;;;;;22.60;16.00;;;;;;;20.83;66.37;97733.46;106708;1270;22524;-75
2023/07/04 06:33:54;;;;;;;18.50;15.00;;;;;;;20.89;65.66;97731.28;106739;1272;22900;-74
2023/07/04 06:36:21;;;;;;;23.90;15.70;;;;;;;21.02;65.56;97737.02;106744;1270;22545;-76
2023/07/04 06:38:47;;;;;;;27.60;15.90;;;;;;;21.13;64.48;97737.08;106701;1276;22555;-76
2023/07/04 06:41:15;;;;;;;22.70;16.30;;;;;;;21.20;63.79;97741.85;106659;1272;22527;-76
2023/07/04 06:43:44;;;;;;;21.60;14.00;;;;;;;21.23;62.27;97747.75;106741;1277;22530;-75
2023/07/04 06:46:14;;;;;;;21.90;15.00;;;;;;;21.22;62.32;97747.12;106717;1276;25436;-77
2023/07/04 06:48:41;;;;;;;23.50;14.10;;;;;;;21.29;63.00;97743.54;106719;1270;25423;-74
2023/07/04 06:51:15;;;;;;;22.70;14.30;;;;;;;21.43;63.36;97743.95;106863;1277;25458;-75
2023/07/04 06:53:42;;;;;;;18.30;13.70;;;;;;;21.55;61.85;97748.64;106536;1276;22652;-75
2023/07/04 06:56:11;;;;;;;22.40;14.10;;;;;;;21.56;61.39;97746.30;106687;1270;25291;-76
2023/07/04 06:58:41;;;;;;;20.50;13.90;;;;;;;21.64;61.82;97752.26;106853;1270;23937;-76
2023/07/04 07:01:10;;;;;;;16.00;12.90;;;;;;;21.76;61.46;97760.39;106742;1277;24092;-75
2023/07/04 07:03:38;;;;;;;20.90;13.50;;;;;;;21.85;60.89;97757.57;106706;1270;22537;-75
2023/07/04 07:06:09;;;;;;;21.50;13.40;;;;;;;21.93;60.99;97753.73;106755;1277;25329;-75
2023/07/04 07:08:37;;;;;;;22.80;12.70;;;;;;;22.02;59.68;97760.16;106737;1277;24301;-76
2023/07/04 07:11:06;;;;;;;19.20;12.60;;;;;;;22.07;58.89;97759.73;107055;1272;22542;-76
2023/07/04 07:13:34;;;;;;;19.60;12.50;;;;;;;22.09;59.10;97758.66;106571;1276;23179;-76
2023/07/04 07:16:04;;;;;;;20.80;12.90;;;;;;;22.15;59.03;97760.38;106670;1276;25863;-76
2023/07/04 07:18:33;;;;;;;17.70;12.20;;;;;;;22.23;58.47;97760.77;107029;1273;25277;-77
2023/07/04 07:21:02;;;;;;;56.60;27.10;;;;;;;22.28;56.97;97760.03;106732;1272;22592;-76
2023/07/04 07:23:30;;;;;;;19.40;13.20;;;;;;;22.33;57.06;97756.06;107003;1276;26635;-76
2023/07/04 07:25:59;;;;;;;22.00;12.80;;;;;;;22.39;56.65;97753.62;106879;1276;22549;-76
2023/07/04 07:28:28;;;;;;;22.30;13.60;;;;;;;22.48;57.05;97757.20;106779;1269;24256;-76
2023/07/04 07:31:07;;;;;;;19.80;12.60;;;;;;;22.55;56.82;97761.17;106798;1269;22530;-78
2023/07/04 07:33:36;;;;;;;40.20;23.20;;;;;;;22.60;55.33;97756.59;106854;1276;22527;-78
2023/07/04 07:36:15;;;;;;;22.70;13.60;;;;;;;22.65;55.57;97760.71;107034;1276;22550;-76
2023/07/04 07:38:42;;;;;;;21.10;11.90;;;;;;;22.75;55.73;97763.37;106802;1276;24225;-76
2023/07/04 07:41:09;;;;;;;20.40;11.80;;;;;;;22.81;56.06;97765.67;106499;1276;22878;-75
2023/07/04 07:43:41;;;;;;;16.90;11.70;;;;;;;22.88;56.11;97756.15;106713;1276;23882;-77
2023/07/04 07:46:16;;;;;;;17.20;10.90;;;;;;;22.99;55.76;97758.98;106842;1276;23011;-76
2023/07/04 07:48:43;;;;;;;22.80;11.70;;;;;;;23.05;55.49;97758.14;106586;1276;22534;-76
2023/07/04 07:51:12;;;;;;;18.10;10.50;;;;;;;23.15;54.15;97763.31;106769;1276;24387;-76
2023/07/04 07:53:42;;;;;;;14.20;10.10;;;;;;;23.09;52.78;97763.28;106819;1276;24203;-75
2023/07/04 07:56:11;;;;;;;18.40;12.00;;;;;;;23.10;53.60;97759.59;106850;1276;22540;-76
2023/07/04 07:58:38;;;;;;;16.80;9.50;;;;;;;23.23;52.74;97759.81;106766;1276;24403;-76
2023/07/04 08:01:18;;;;;;;13.00;8.40;;;;;;;23.22;50.17;97757.13;106789;1276;22637;-76
2023/07/04 08:03:46;;;;;;;16.20;9.60;;;;;;;23.25;50.76;97758.09;106801;1276;22548;-77
2023/07/04 08:06:24;;;;;;;15.80;9.80;;;;;;;23.22;50.42;97755.88;107029;1276;25473;-75
2023/07/04 08:08:52;;;;;;;13.80;8.20;;;;;;;23.26;50.99;97754.96;106829;1276;22535;-75
2023/07/04 08:11:20;;;;;;;17.30;8.30;;;;;;;23.37;49.71;97761.60;106954;1276;22541;-76
2023/07/04 08:13:47;;;;;;;11.10;6.40;;;;;;;23.42;49.68;97760.83;106792;1276;23002;-77
2023/07/04 08:16:20;;;;;;;14.90;6.90;;;;;;;23.52;48.69;97762.99;106819;1276;22553;-77
2023/07/04 08:18:47;;;;;;;15.10;7.30;;;;;;;23.58;48.07;97764.51;107030;1276;22565;-77
2023/07/04 08:21:14;;;;;;;14.30;6.60;;;;;;;23.67;47.14;97767.43;106821;1276;22593;-78
2023/07/04 08:23:41;;;;;;;15.00;6.70;;;;;;;23.69;47.10;97763.61;106943;1276;22612;-77
2023/07/04 08:26:21;;;;;;;16.00;7.20;;;;;;;23.70;46.17;97764.17;106799;1276;25432;-77
2023/07/04 08:28:47;;;;;;;12.00;6.00;;;;;;;23.69;46.29;97765.55;106808;1276;22650;-77
2023/07/04 08:31:18;;;;;;;11.60;6.20;;;;;;;23.72;45.87;97764.02;106772;1276;22530;-78
2023/07/04 08:33:46;;;;;;;12.90;6.20;;;;;;;23.80;45.69;97768.98;106748;1276;22539;-78
2023/07/04 08:36:15;;;;;;;9.90;5.60;;;;;;;23.81;44.92;97765.85;106815;1276;22530;-78
2023/07/04 08:38:43;;;;;;;9.80;5.60;;;;;;;23.85;44.64;97767.11;107114;1276;25412;-78
2023/07/04 08:41:21;;;;;;;9.80;5.20;;;;;;;23.88;44.07;97761.62;107046;1276;22657;-77
2023/07/04 08:43:58;;;;;;;8.70;5.50;;;;;;;23.89;44.00;97762.72;106825;1276;22541;-78
2023/07/04 08:46:29;;;;;;;8.40;4.80;;;;;;;23.93;43.87;97765.72;106810;1277;22551;-79
2023/07/04 08:48:57;;;;;;;7.80;4.80;;;;;;;24.01;43.68;97764.39;107081;1276;22598;-79
2023/07/04 08:51:34;;;;;;;11.80;5.20;;;;;;;24.12;42.58;97764.73;107112;1276;24186;-78
2023/07/04 08:54:06;;;;;;;11.00;4.70;;;;;;;24.12;42.78;97760.55;107030;1276;22530;-78
2023/07/04 08:56:36;;;;;;;11.10;5.70;;;;;;;24.21;42.44;97762.37;107104;1266;22781;-79
2023/07/04 08:59:28;;;;;;;8.60;4.50;;;;;;;24.26;42.38;97758.52;106891;1276;22540;-77
2023/07/04 09:02:13;;;;;;;10.10;5.40;;;;;;;24.29;41.26;97757.27;106808;1270;24243;-78
2023/07/04 09:04:50;;;;;;;10.20;5.10;;;;;;;24.22;40.97;97754.83;106821;1275;24772;-77
2023/07/04 09:07:28;;;;;;;10.70;5.30;;;;;;;24.28;41.71;97751.75;106771;1269;22598;-77
2023/07/04 09:10:10;;;;;;;8.60;4.70;;;;;;;24.32;40.90;97752.77;107036;1276;25360;-78
2023/07/04 09:12:39;;;;;;;13.90;5.50;;;;;;;24.39;41.25;97759.77;107076;1270;25278;-77
2023/07/04 09:15:20;;;;;;;13.60;6.40;;;;;;;24.38;40.95;97757.81;106876;1274;25281;-78
2023/07/04 09:17:59;;;;;;;9.80;6.10;;;;;;;24.36;40.98;97761.52;107020;1269;25217;-78
2023/07/04 09:21:07;;;;;;;8.80;5.10;;;;;;;24.29;41.54;97760.48;107048;1276;22498;-77
2023/07/04 09:23:34;;;;;;;9.80;5.70;;;;;;;24.40;41.31;97771.43;106861;1270;22583;-78
2023/07/04 09:26:01;;;;;;;8.70;5.30;;;;;;;24.44;40.78;97769.88;106777;1269;25604;-78
2023/07/04 09:28:29;;;;;;;12.70;5.20;;;;;;;24.44;41.11;97768.71;107072;1270;22651;-79
2023/07/04 09:30:59;;;;;;;11.40;5.20;;;;;;;24.45;40.74;97771.85;107084;1275;24197;-78
2023/07/04 09:33:30;;;;;;;12.00;6.10;;;;;;;24.44;41.07;97772.02;107040;1277;24329;-78
2023/07/04 09:35:57;;;;;;;10.30;6.10;;;;;;;24.45;40.43;97770.81;107073;1270;25529;-76
2023/07/04 09:38:24;;;;;;;9.80;4.90;;;;;;;24.42;40.38;97765.85;106733;1277;24252;-77
2023/07/04 09:40:54;;;;;;;10.80;5.70;;;;;;;24.44;40.43;97771.29;106469;1269;27010;-77
2023/07/04 09:43:30;;;;;;;8.70;5.00;;;;;;;24.46;40.02;97779.48;106802;1277;22679;-77
2023/07/04 09:46:21;;;;;;;10.00;5.60;;;;;;;24.40;40.32;97769.14;106783;1275;24633;-77
2023/07/04 09:48:47;;;;;;;10.50;5.20;;;;;;;24.43;40.26;97775.70;107087;1270;22609;-78
2023/07/04 09:51:25;;;;;;;11.70;6.70;;;;;;;24.42;39.79;97773.95;106815;1277;22667;-77
2023/07/04 09:54:11;;;;;;;10.80;6.70;;;;;;;24.43;40.06;97773.88;106890;1277;22561;-77
2023/07/04 09:56:38;;;;;;;8.90;6.30;;;;;;;24.60;39.65;97780.58;106493;1272;25463;-78
2023/07/04 09:59:12;;;;;;;13.90;6.90;;;;;;;24.55;39.08;97772.55;106788;1269;22533;-78
2023/07/04 10:01:47;;;;;;;31.30;14.00;;;;;;;24.57;39.70;97775.08;106825;1270;25297;-79
2023/07/04 10:04:29;;;;;;;14.40;8.30;;;;;;;24.70;40.01;97762.53;107076;1277;24223;-78
2023/07/04 10:06:57;;;;;;;46.20;19.60;;;;;;;24.93;39.50;97772.81;106783;1277;24376;-78
2023/07/04 10:09:24;;;;;;;16.20;9.60;;;;;;;24.89;38.94;97773.61;106757;1277;22592;-77
2023/07/04 10:12:17;;;;;;;12.70;7.40;;;;;;;24.85;38.86;97762.60;107013;1277;22574;-79
2023/07/04 10:14:52;;;;;;;11.00;7.40;;;;;;;24.84;38.69;97770.16;107004;1277;25115;-77
2023/07/04 10:17:35;;;;;;;12.60;8.00;;;;;;;24.76;38.41;97768.27;107128;1277;25354;-78
2023/07/04 10:20:13;;;;;;;9.10;7.10;;;;;;;24.74;38.80;97767.80;107105;1277;22586;-78
2023/07/04 10:22:46;;;;;;;10.20;8.20;;;;;;;24.83;38.33;97770.55;107080;1277;22594;-78
2023/07/04 10:25:16;;;;;;;14.00;8.50;;;;;;;24.93;38.80;97760.30;106748;1277;22534;-78
2023/07/04 10:27:49;;;;;;;10.50;8.10;;;;;;;25.04;38.48;97764.29;106761;1277;23906;-78
2023/07/04 10:30:29;;;;;;;11.00;7.80;;;;;;;25.15;38.82;97757.73;107055;1277;25863;-78
2023/07/04 10:33:01;;;;;;;12.80;7.80;;;;;;;25.31;38.92;97747.27;106778;1277;22652;-76
2023/07/04 10:35:32;;;;;;;11.60;8.00;;;;;;;25.49;38.71;97752.71;107093;1269;24062;-77
2023/07/04 10:38:22;;;;;;;13.20;8.10;;;;;;;25.61;38.53;97758.11;107043;1277;22527;-77
2023/07/04 10:40:50;;;;;;;12.20;9.00;;;;;;;25.57;37.96;97764.59;107043;1277;22553;-78
2023/07/04 10:43:29;;;;;;;18.00;11.40;;;;;;;25.55;37.78;97765.77;106517;1272;22545;-78
2023/07/04 10:45:58;;;;;;;15.90;10.90;;;;;;;25.65;37.39;97767.71;106762;1273;22555;-78
2023/07/04 10:48:33;;;;;;;13.70;9.80;;;;;;;25.70;36.91;97765.14;106725;1275;25268;-77
2023/07/04 10:51:08;;;;;;;13.20;10.20;;;;;;;25.69;37.47;97764.52;106796;1270;22551;-78
2023/07/04 10:53:36;;;;;;;12.10;9.40;;;;;;;25.78;37.26;97775.98;106662;1277;22534;-77
2023/07/04 10:56:14;;;;;;;12.80;9.80;;;;;;;25.77;37.02;97770.39;106688;1261;24201;-77
2023/07/04 10:58:44;;;;;;;15.00;10.20;;;;;;;25.71;36.77;97767.75;106596;1278;25012;-77
2023/07/04 11:01:26;;;;;;;13.00;11.50;;;;;;;25.67;36.73;97765.48;106850;1277;22548;-80
2023/07/04 11:04:11;;;;;;;14.20;11.50;;;;;;;25.77;36.28;97764.95;106810;1277;23967;-80
2023/07/04 11:06:45;;;;;;;12.70;11.10;;;;;;;25.82;36.42;97762.98;106721;1278;22659;-80
2023/07/04 11:09:15;;;;;;;17.30;11.50;;;;;;;25.89;36.45;97758.29;106912;1276;22689;-80
2023/07/04 11:11:50;;;;;;;13.10;11.70;;;;;;;26.00;36.39;97759.09;106794;1273;23305;-79
2023/07/04 11:14:26;;;;;;;11.70;10.60;;;;;;;26.10;36.04;97753.50;107763;1272;22692;-79
2023/07/04 11:16:56;;;;;;;11.60;10.10;;;;;;;26.19;35.93;97751.06;106879;1277;25247;-81
2023/07/04 11:19:30;;;;;;;12.70;9.60;;;;;;;26.18;35.70;97755.40;106840;1278;24223;-80
2023/07/04 11:22:00;;;;;;;12.80;9.60;;;;;;;26.17;35.87;97755.41;107034;1278;22573;-79
2023/07/04 11:24:38;;;;;;;10.80;8.70;;;;;;;26.17;35.68;97752.18;107211;1277;23336;-77
2023/07/04 11:27:29;;;;;;;13.20;8.40;;;;;;;26.18;36.19;97753.19;106970;1277;22536;-79